sensor_id;sensor_type;location;lat;lon;timestamp;pressure;altitude;pressure_sealevel;temperature;humidity
11830;BME280;5972;42.134;24.718;2023-03-25T00:01:45;99436.13;;;10.75;100.00
11830;BME280;5972;42.134;24.718;2023-03-25T00:04:12;99440.81;;;10.78;100.00
11830;BME280;5972;42.134;24.718;2023-03-25T00:06:42;99436.19;;;10.79;100.00
11830;BME280;5972;42.134;24.718;2023-03-25T00:09:10;99435.41;;;10.78;100.00
11830;BME280;5972;42.134;24.718;2023-03-25T00:11:37;99441.03;;;10.86;100.00
11830;BME280;5972;42.134;24.718;2023-03-25T00:14:04;99432.72;;;10.78;100.00
11830;BME280;5972;42.134;24.718;2023-03-25T00:16:30;99431.41;;;10.88;100.00
11830;BME280;5972;42.134;24.718;2023-03-25T00:18:57;99430.72;;;10.91;100.00
11830;BME280;5972;42.134;24.718;2023-03-25T00:21:25;99419.78;;;10.88;100.00
11830;BME280;5972;42.134;24.718;2023-03-25T00:23:52;99407.56;;;10.78;100.00
11830;BME280;5972;42.134;24.718;2023-03-25T00:26:20;99422.06;;;10.86;100.00
11830;BME280;5972;42.134;24.718;2023-03-25T00:28:46;99424.78;;;10.86;100.00
11830;BME280;5972;42.134;24.718;2023-03-25T00:31:13;99418.56;;;10.85;100.00
11830;BME280;5972;42.134;24.718;2023-03-25T00:33:43;99419.25;;;10.82;100.00
11830;BME280;5972;42.134;24.718;2023-03-25T00:36:30;99419.25;;;10.82;100.00
11830;BME280;5972;42.134;24.718;2023-03-25T00:38:56;99420.03;;;10.82;100.00
11830;BME280;5972;42.134;24.718;2023-03-25T00:41:25;99407.31;;;10.83;100.00
11830;BME280;5972;42.134;24.718;2023-03-25T00:43:53;99413.31;;;10.76;100.00
11830;BME280;5972;42.134;24.718;2023-03-25T00:46:21;99398.31;;;10.79;100.00
11830;BME280;5972;42.134;24.718;2023-03-25T00:48:48;99399.78;;;10.76;100.00
11830;BME280;5972;42.134;24.718;2023-03-25T00:51:15;99405.97;;;10.77;100.00
11830;BME280;5972;42.134;24.718;2023-03-25T00:53:44;99397.44;;;10.75;100.00
11830;BME280;5972;42.134;24.718;2023-03-25T00:56:11;99402.41;;;10.73;100.00
11830;BME280;5972;42.134;24.718;2023-03-25T00:58:39;99398.81;;;10.53;100.00
11830;BME280;5972;42.134;24.718;2023-03-25T01:01:09;99396.97;;;10.57;100.00
11830;BME280;5972;42.134;24.718;2023-03-25T01:03:37;99399.88;;;10.64;100.00
11830;BME280;5972;42.134;24.718;2023-03-25T01:06:08;99406.84;;;10.65;100.00
11830;BME280;5972;42.134;24.718;2023-03-25T01:08:36;99398.63;;;10.62;100.00
11830;BME280;5972;42.134;24.718;2023-03-25T01:11:03;99400.47;;;10.58;100.00
11830;BME280;5972;42.134;24.718;2023-03-25T01:13:30;99390.69;;;10.53;100.00
11830;BME280;5972;42.134;24.718;2023-03-25T01:15:58;99395.03;;;10.42;100.00
11830;BME280;5972;42.134;24.718;2023-03-25T01:18:25;99400.91;;;10.32;100.00
11830;BME280;5972;42.134;24.718;2023-03-25T01:20:52;99387.59;;;10.39;100.00
11830;BME280;5972;42.134;24.718;2023-03-25T01:23:18;99375.31;;;10.41;100.00
11830;BME280;5972;42.134;24.718;2023-03-25T01:25:45;99378.69;;;10.38;100.00
11830;BME280;5972;42.134;24.718;2023-03-25T01:28:12;99368.19;;;10.37;100.00
11830;BME280;5972;42.134;24.718;2023-03-25T01:30:38;99368.47;;;10.32;100.00
11830;BME280;5972;42.134;24.718;2023-03-25T01:33:07;99370.91;;;10.37;100.00
11830;BME280;5972;42.134;24.718;2023-03-25T01:35:33;99366.19;;;10.34;100.00
11830;BME280;5972;42.134;24.718;2023-03-25T01:38:00;99368.81;;;10.30;100.00
11830;BME280;5972;42.134;24.718;2023-03-25T01:40:28;99363.63;;;10.25;100.00
11830;BME280;5972;42.134;24.718;2023-03-25T01:42:55;99367.84;;;10.23;100.00
11830;BME280;5972;42.134;24.718;2023-03-25T01:45:27;99364.69;;;10.21;100.00
11830;BME280;5972;42.134;24.718;2023-03-25T01:48:01;99354.78;;;10.13;100.00
11830;BME280;5972;42.134;24.718;2023-03-25T01:50:32;99358.75;;;10.03;100.00
11830;BME280;5972;42.134;24.718;2023-03-25T01:53:01;99350.00;;;9.94;100.00
11830;BME280;5972;42.134;24.718;2023-03-25T01:55:29;99347.84;;;9.99;100.00
11830;BME280;5972;42.134;24.718;2023-03-25T01:57:59;99348.53;;;9.96;100.00
11830;BME280;5972;42.134;24.718;2023-03-25T02:00:30;99346.97;;;9.95;100.00
11830;BME280;5972;42.134;24.718;2023-03-25T02:02:58;99347.28;;;9.94;100.00
11830;BME280;5972;42.134;24.718;2023-03-25T02:05:32;99333.25;;;9.88;100.00
11830;BME280;5972;42.134;24.718;2023-03-25T02:08:04;99337.06;;;9.87;100.00
11830;BME280;5972;42.134;24.718;2023-03-25T02:10:33;99313.41;;;9.56;100.00
11830;BME280;5972;42.134;24.718;2023-03-25T02:13:01;99316.75;;;9.66;100.00
11830;BME280;5972;42.134;24.718;2023-03-25T02:15:31;99331.47;;;9.80;100.00
11830;BME280;5972;42.134;24.718;2023-03-25T02:18:18;99336.66;;;9.73;100.00
11830;BME280;5972;42.134;24.718;2023-03-25T02:21:16;99335.66;;;9.66;100.00
11830;BME280;5972;42.134;24.718;2023-03-25T02:27:19;99336.84;;;9.52;100.00
11830;BME280;5972;42.134;24.718;2023-03-25T02:33:06;99323.94;;;9.34;100.00
11830;BME280;5972;42.134;24.718;2023-03-25T02:35:52;99324.47;;;9.39;100.00
11830;BME280;5972;42.134;24.718;2023-03-25T02:38:33;99319.97;;;9.31;100.00
11830;BME280;5972;42.134;24.718;2023-03-25T02:41:05;99322.91;;;9.26;100.00
11830;BME280;5972;42.134;24.718;2023-03-25T02:43:40;99328.13;;;9.19;100.00
11830;BME280;5972;42.134;24.718;2023-03-25T02:46:14;99321.69;;;9.11;100.00
11830;BME280;5972;42.134;24.718;2023-03-25T02:48:46;99324.41;;;9.11;100.00
11830;BME280;5972;42.134;24.718;2023-03-25T02:51:20;99319.44;;;8.89;100.00
11830;BME280;5972;42.134;24.718;2023-03-25T02:53:50;99317.53;;;9.02;100.00
11830;BME280;5972;42.134;24.718;2023-03-25T02:56:19;99294.06;;;8.90;100.00
11830;BME280;5972;42.134;24.718;2023-03-25T02:58:51;99321.13;;;8.94;100.00
11830;BME280;5972;42.134;24.718;2023-03-25T03:01:20;99309.88;;;9.04;100.00
11830;BME280;5972;42.134;24.718;2023-03-25T03:03:47;99277.41;;;8.88;100.00
11830;BME280;5972;42.134;24.718;2023-03-25T03:06:16;99297.50;;;9.03;100.00
11830;BME280;5972;42.134;24.718;2023-03-25T03:09:01;99297.41;;;9.11;100.00
11830;BME280;5972;42.134;24.718;2023-03-25T03:11:39;99295.72;;;9.19;100.00
11830;BME280;5972;42.134;24.718;2023-03-25T03:14:27;99286.28;;;9.13;100.00
11830;BME280;5972;42.134;24.718;2023-03-25T03:17:02;99294.25;;;8.97;100.00
11830;BME280;5972;42.134;24.718;2023-03-25T03:19:35;99295.50;;;9.12;100.00
11830;BME280;5972;42.134;24.718;2023-03-25T03:22:13;99286.72;;;9.03;100.00
11830;BME280;5972;42.134;24.718;2023-03-25T03:24:48;99292.22;;;9.18;100.00
11830;BME280;5972;42.134;24.718;2023-03-25T03:27:23;99288.38;;;9.19;100.00
11830;BME280;5972;42.134;24.718;2023-03-25T03:30:03;99280.53;;;9.14;100.00
11830;BME280;5972;42.134;24.718;2023-03-25T03:32:38;99282.00;;;9.12;100.00
11830;BME280;5972;42.134;24.718;2023-03-25T03:35:11;99280.53;;;9.14;100.00
11830;BME280;5972;42.134;24.718;2023-03-25T03:37:42;99277.81;;;9.14;100.00
11830;BME280;5972;42.134;24.718;2023-03-25T03:40:16;99276.16;;;9.10;100.00
11830;BME280;5972;42.134;24.718;2023-03-25T03:42:46;99286.38;;;9.04;100.00
11830;BME280;5972;42.134;24.718;2023-03-25T03:45:18;99293.13;;;8.98;100.00
11830;BME280;5972;42.134;24.718;2023-03-25T03:47:49;99294.72;;;8.87;100.00
11830;BME280;5972;42.134;24.718;2023-03-25T03:50:20;99270.88;;;8.65;100.00
11830;BME280;5972;42.134;24.718;2023-03-25T03:52:51;99288.88;;;8.73;100.00
11830;BME280;5972;42.134;24.718;2023-03-25T03:55:27;99282.44;;;8.65;100.00
11830;BME280;5972;42.134;24.718;2023-03-25T03:57:58;99287.06;;;8.65;100.00
11830;BME280;5972;42.134;24.718;2023-03-25T04:00:30;99267.28;;;8.61;100.00
11830;BME280;5972;42.134;24.718;2023-03-25T04:03:01;99281.22;;;8.75;100.00
11830;BME280;5972;42.134;24.718;2023-03-25T04:05:33;99286.28;;;8.76;100.00
11830;BME280;5972;42.134;24.718;2023-03-25T04:08:06;99283.72;;;8.80;100.00
11830;BME280;5972;42.134;24.718;2023-03-25T04:10:40;99284.84;;;8.79;100.00
11830;BME280;5972;42.134;24.718;2023-03-25T04:13:12;99286.28;;;8.89;100.00
11830;BME280;5972;42.134;24.718;2023-03-25T04:15:41;99281.00;;;8.92;100.00
11830;BME280;5972;42.134;24.718;2023-03-25T04:18:08;99284.25;;;8.98;100.00
11830;BME280;5972;42.134;24.718;2023-03-25T04:20:36;99283.81;;;8.96;100.00
11830;BME280;5972;42.134;24.718;2023-03-25T04:23:11;99288.28;;;9.04;100.00
11830;BME280;5972;42.134;24.718;2023-03-25T04:25:41;99294.59;;;9.08;100.00
11830;BME280;5972;42.134;24.718;2023-03-25T04:28:12;99298.84;;;9.09;100.00
11830;BME280;5972;42.134;24.718;2023-03-25T04:30:42;99260.56;;;8.79;100.00
11830;BME280;5972;42.134;24.718;2023-03-25T04:33:10;99296.72;;;9.14;100.00
11830;BME280;5972;42.134;24.718;2023-03-25T04:35:37;99296.16;;;9.21;100.00
11830;BME280;5972;42.134;24.718;2023-03-25T04:38:05;99289.72;;;9.38;100.00
11830;BME280;5972;42.134;24.718;2023-03-25T04:40:32;99295.41;;;9.48;100.00
11830;BME280;5972;42.134;24.718;2023-03-25T04:43:00;99293.25;;;9.54;100.00
11830;BME280;5972;42.134;24.718;2023-03-25T04:45:27;99305.59;;;9.79;100.00
11830;BME280;5972;42.134;24.718;2023-03-25T04:47:55;99306.75;;;9.94;100.00
11830;BME280;5972;42.134;24.718;2023-03-25T04:50:24;99304.06;;;10.22;100.00
11830;BME280;5972;42.134;24.718;2023-03-25T04:52:52;99306.78;;;10.37;100.00
11830;BME280;5972;42.134;24.718;2023-03-25T04:55:19;99298.06;;;10.60;100.00
11830;BME280;5972;42.134;24.718;2023-03-25T04:57:47;99301.94;;;10.90;100.00
11830;BME280;5972;42.134;24.718;2023-03-25T05:00:33;99305.72;;;11.20;100.00
11830;BME280;5972;42.134;24.718;2023-03-25T05:03:00;99309.94;;;11.53;100.00
11830;BME280;5972;42.134;24.718;2023-03-25T05:05:27;99301.00;;;11.72;100.00
11830;BME280;5972;42.134;24.718;2023-03-25T05:07:54;99299.47;;;11.90;100.00
11830;BME280;5972;42.134;24.718;2023-03-25T05:10:24;99306.03;;;12.08;100.00
11830;BME280;5972;42.134;24.718;2023-03-25T05:12:57;99301.50;;;12.35;100.00
11830;BME280;5972;42.134;24.718;2023-03-25T05:15:24;99302.34;;;12.62;100.00
11830;BME280;5972;42.134;24.718;2023-03-25T05:17:52;99273.44;;;12.73;98.57
11830;BME280;5972;42.134;24.718;2023-03-25T05:20:20;99291.25;;;13.19;94.33
11830;BME280;5972;42.134;24.718;2023-03-25T05:22:47;99286.56;;;13.43;88.80
11830;BME280;5972;42.134;24.718;2023-03-25T05:25:15;99291.47;;;13.63;88.78
11830;BME280;5972;42.134;24.718;2023-03-25T05:27:46;99296.22;;;15.35;72.97
11830;BME280;5972;42.134;24.718;2023-03-25T05:30:13;99289.28;;;16.99;60.65
11830;BME280;5972;42.134;24.718;2023-03-25T05:32:57;99301.94;;;17.94;54.65
11830;BME280;5972;42.134;24.718;2023-03-25T05:35:24;99290.44;;;19.27;49.06
11830;BME280;5972;42.134;24.718;2023-03-25T05:37:52;99289.91;;;20.38;45.59
11830;BME280;5972;42.134;24.718;2023-03-25T05:40:20;99295.13;;;21.68;42.08
11830;BME280;5972;42.134;24.718;2023-03-25T05:42:47;99286.25;;;22.52;39.48
11830;BME280;5972;42.134;24.718;2023-03-25T05:45:14;99287.56;;;22.80;38.16
11830;BME280;5972;42.134;24.718;2023-03-25T05:47:42;99293.84;;;23.29;37.30
11830;BME280;5972;42.134;24.718;2023-03-25T05:50:10;99282.56;;;23.94;35.96
11830;BME280;5972;42.134;24.718;2023-03-25T05:52:39;99277.63;;;24.65;34.66
11830;BME280;5972;42.134;24.718;2023-03-25T05:55:09;99286.00;;;25.12;33.51
11830;BME280;5972;42.134;24.718;2023-03-25T05:57:37;99288.56;;;25.84;32.34
11830;BME280;5972;42.134;24.718;2023-03-25T06:00:05;99297.84;;;25.90;32.17
11830;BME280;5972;42.134;24.718;2023-03-25T06:02:33;99296.06;;;26.27;31.49
11830;BME280;5972;42.134;24.718;2023-03-25T06:05:03;99283.47;;;26.84;30.26
11830;BME280;5972;42.134;24.718;2023-03-25T06:07:32;99294.97;;;26.65;30.77
11830;BME280;5972;42.134;24.718;2023-03-25T06:09:58;99288.78;;;27.37;29.99
11830;BME280;5972;42.134;24.718;2023-03-25T06:12:25;99296.97;;;26.64;30.78
11830;BME280;5972;42.134;24.718;2023-03-25T06:14:54;99294.78;;;26.90;29.84
11830;BME280;5972;42.134;24.718;2023-03-25T06:17:21;99288.97;;;27.52;28.94
11830;BME280;5972;42.134;24.718;2023-03-25T06:19:48;99281.56;;;27.58;28.92
11830;BME280;5972;42.134;24.718;2023-03-25T06:22:16;99292.97;;;27.78;28.95
11830;BME280;5972;42.134;24.718;2023-03-25T06:24:46;99298.75;;;25.87;30.49
11830;BME280;5972;42.134;24.718;2023-03-25T06:27:15;99285.22;;;26.51;29.46
11830;BME280;5972;42.134;24.718;2023-03-25T06:29:42;99286.44;;;26.50;29.72
11830;BME280;5972;42.134;24.718;2023-03-25T06:32:12;99288.44;;;26.49;29.62
11830;BME280;5972;42.134;24.718;2023-03-25T06:34:39;99289.06;;;26.14;30.24
11830;BME280;5972;42.134;24.718;2023-03-25T06:37:07;99277.53;;;24.56;31.48
11830;BME280;5972;42.134;24.718;2023-03-25T06:39:34;99284.38;;;24.76;32.07
11830;BME280;5972;42.134;24.718;2023-03-25T06:42:04;99290.25;;;24.53;32.59
11830;BME280;5972;42.134;24.718;2023-03-25T06:44:31;99286.84;;;25.21;31.93
11830;BME280;5972;42.134;24.718;2023-03-25T06:46:58;99283.59;;;26.32;30.80
11830;BME280;5972;42.134;24.718;2023-03-25T06:49:26;99274.41;;;26.44;30.09
11830;BME280;5972;42.134;24.718;2023-03-25T06:51:53;99280.09;;;25.22;31.81
11830;BME280;5972;42.134;24.718;2023-03-25T06:54:20;99284.81;;;26.71;29.87
11830;BME280;5972;42.134;24.718;2023-03-25T06:56:47;99285.38;;;26.97;29.34
11830;BME280;5972;42.134;24.718;2023-03-25T06:59:15;99279.38;;;27.62;28.84
11830;BME280;5972;42.134;24.718;2023-03-25T07:01:42;99272.41;;;27.85;28.49
11830;BME280;5972;42.134;24.718;2023-03-25T07:04:08;99285.84;;;27.50;28.63
11830;BME280;5972;42.134;24.718;2023-03-25T07:06:35;99279.06;;;27.23;29.33
11830;BME280;5972;42.134;24.718;2023-03-25T07:09:02;99283.31;;;28.16;28.04
11830;BME280;5972;42.134;24.718;2023-03-25T07:11:29;99279.34;;;28.40;27.52
11830;BME280;5972;42.134;24.718;2023-03-25T07:13:57;99276.81;;;28.51;27.67
11830;BME280;5972;42.134;24.718;2023-03-25T07:16:26;99280.56;;;28.72;27.58
11830;BME280;5972;42.134;24.718;2023-03-25T07:18:53;99269.13;;;28.79;27.13
11830;BME280;5972;42.134;24.718;2023-03-25T07:21:21;99276.78;;;28.09;28.18
11830;BME280;5972;42.134;24.718;2023-03-25T07:23:48;99268.75;;;29.10;26.84
11830;BME280;5972;42.134;24.718;2023-03-25T07:26:15;99271.25;;;29.08;26.72
11830;BME280;5972;42.134;24.718;2023-03-25T07:28:41;99267.41;;;29.20;27.27
11830;BME280;5972;42.134;24.718;2023-03-25T07:31:10;99272.41;;;29.16;27.03
11830;BME280;5972;42.134;24.718;2023-03-25T07:33:38;99271.84;;;28.88;26.72
11830;BME280;5972;42.134;24.718;2023-03-25T07:36:07;99265.19;;;28.29;27.38
11830;BME280;5972;42.134;24.718;2023-03-25T07:38:34;99276.06;;;28.00;28.14
11830;BME280;5972;42.134;24.718;2023-03-25T07:41:04;99263.63;;;26.95;28.78
11830;BME280;5972;42.134;24.718;2023-03-25T07:43:31;99260.53;;;26.93;29.45
11830;BME280;5972;42.134;24.718;2023-03-25T07:45:58;99256.53;;;27.67;28.47
11830;BME280;5972;42.134;24.718;2023-03-25T07:48:25;99251.09;;;27.73;28.20
11830;BME280;5972;42.134;24.718;2023-03-25T07:50:53;99231.81;;;27.60;28.81
11830;BME280;5972;42.134;24.718;2023-03-25T07:53:20;99252.97;;;28.27;27.89
11830;BME280;5972;42.134;24.718;2023-03-25T07:55:47;99248.91;;;28.70;27.88
11830;BME280;5972;42.134;24.718;2023-03-25T07:58:15;99244.97;;;28.52;27.35
11830;BME280;5972;42.134;24.718;2023-03-25T08:00:42;99238.00;;;27.37;28.50
11830;BME280;5972;42.134;24.718;2023-03-25T08:03:09;99239.84;;;26.94;29.03
11830;BME280;5972;42.134;24.718;2023-03-25T08:05:36;99228.41;;;27.65;28.48
11830;BME280;5972;42.134;24.718;2023-03-25T08:08:05;99233.78;;;27.78;29.09
11830;BME280;5972;42.134;24.718;2023-03-25T08:10:32;99239.78;;;27.94;28.91
11830;BME280;5972;42.134;24.718;2023-03-25T08:12:59;99228.72;;;28.84;27.53
11830;BME280;5972;42.134;24.718;2023-03-25T08:15:26;99228.53;;;27.80;28.40
11830;BME280;5972;42.134;24.718;2023-03-25T08:17:52;99227.03;;;27.42;29.07
11830;BME280;5972;42.134;24.718;2023-03-25T08:20:19;99225.59;;;27.83;28.78
11830;BME280;5972;42.134;24.718;2023-03-25T08:22:46;99225.03;;;27.61;28.60
11830;BME280;5972;42.134;24.718;2023-03-25T08:25:14;99205.59;;;27.15;28.59
11830;BME280;5972;42.134;24.718;2023-03-25T08:27:41;99227.69;;;26.42;30.29
11830;BME280;5972;42.134;24.718;2023-03-25T08:30:09;99226.97;;;28.63;27.95
11830;BME280;5972;42.134;24.718;2023-03-25T08:32:36;99228.19;;;29.09;27.25
11830;BME280;5972;42.134;24.718;2023-03-25T08:35:05;99223.97;;;29.67;26.79
11830;BME280;5972;42.134;24.718;2023-03-25T08:37:32;99216.94;;;29.71;26.50
11830;BME280;5972;42.134;24.718;2023-03-25T08:40:00;99226.22;;;29.92;26.34
11830;BME280;5972;42.134;24.718;2023-03-25T08:42:28;99217.34;;;29.50;26.47
11830;BME280;5972;42.134;24.718;2023-03-25T08:44:55;99204.47;;;29.67;26.26
11830;BME280;5972;42.134;24.718;2023-03-25T08:47:21;99217.44;;;29.55;26.42
11830;BME280;5972;42.134;24.718;2023-03-25T08:49:48;99214.94;;;29.87;26.19
11830;BME280;5972;42.134;24.718;2023-03-25T08:52:15;99210.34;;;29.16;26.56
11830;BME280;5972;42.134;24.718;2023-03-25T08:54:42;99201.72;;;28.42;27.58
11830;BME280;5972;42.134;24.718;2023-03-25T08:57:09;99193.88;;;27.99;28.34
11830;BME280;5972;42.134;24.718;2023-03-25T08:59:37;99181.75;;;27.78;28.49
11830;BME280;5972;42.134;24.718;2023-03-25T09:02:03;99180.09;;;28.37;28.15
11830;BME280;5972;42.134;24.718;2023-03-25T09:04:31;99184.44;;;28.86;27.77
11830;BME280;5972;42.134;24.718;2023-03-25T09:06:58;99167.03;;;28.76;26.85
11830;BME280;5972;42.134;24.718;2023-03-25T09:09:25;99166.03;;;28.41;27.29
11830;BME280;5972;42.134;24.718;2023-03-25T09:11:51;99162.59;;;27.02;28.95
11830;BME280;5972;42.134;24.718;2023-03-25T09:14:18;99164.63;;;28.13;27.62
11830;BME280;5972;42.134;24.718;2023-03-25T09:16:46;99155.94;;;29.06;26.72
11830;BME280;5972;42.134;24.718;2023-03-25T09:19:13;99149.75;;;29.40;26.26
11830;BME280;5972;42.134;24.718;2023-03-25T09:21:41;99141.81;;;28.94;27.01
11830;BME280;5972;42.134;24.718;2023-03-25T09:24:08;99140.59;;;28.72;26.72
11830;BME280;5972;42.134;24.718;2023-03-25T09:26:35;99134.50;;;28.82;27.17
11830;BME280;5972;42.134;24.718;2023-03-25T09:29:02;99124.84;;;29.07;26.60
11830;BME280;5972;42.134;24.718;2023-03-25T09:31:29;99140.47;;;28.66;26.95
11830;BME280;5972;42.134;24.718;2023-03-25T09:33:57;99113.19;;;28.56;26.68
11830;BME280;5972;42.134;24.718;2023-03-25T09:36:24;99129.84;;;28.17;27.08
11830;BME280;5972;42.134;24.718;2023-03-25T09:38:51;99117.81;;;28.59;26.54
11830;BME280;5972;42.134;24.718;2023-03-25T09:41:30;99117.31;;;29.72;25.84
11830;BME280;5972;42.134;24.718;2023-03-25T09:44:03;99119.25;;;29.66;25.86
11830;BME280;5972;42.134;24.718;2023-03-25T09:46:36;99113.38;;;28.90;26.29
11830;BME280;5972;42.134;24.718;2023-03-25T09:49:04;99107.03;;;28.90;26.69
11830;BME280;5972;42.134;24.718;2023-03-25T09:51:38;99104.16;;;28.84;26.62
11830;BME280;5972;42.134;24.718;2023-03-25T09:54:15;99090.91;;;28.79;26.56
11830;BME280;5972;42.134;24.718;2023-03-25T09:56:45;99096.25;;;29.36;25.80
11830;BME280;5972;42.134;24.718;2023-03-25T09:59:13;99094.50;;;29.39;26.00
11830;BME280;5972;42.134;24.718;2023-03-25T10:01:45;99081.03;;;29.08;26.43
11830;BME280;5972;42.134;24.718;2023-03-25T10:04:42;99089.88;;;29.06;26.23
11830;BME280;5972;42.134;24.718;2023-03-25T10:07:28;99059.75;;;28.66;26.58
11830;BME280;5972;42.134;24.718;2023-03-25T10:10:02;99065.22;;;28.37;27.47
11830;BME280;5972;42.134;24.718;2023-03-25T10:12:38;99057.66;;;28.37;26.63
11830;BME280;5972;42.134;24.718;2023-03-25T10:15:16;99051.31;;;28.37;27.01
11830;BME280;5972;42.134;24.718;2023-03-25T10:17:55;99060.97;;;28.50;27.63
11830;BME280;5972;42.134;24.718;2023-03-25T10:20:38;99041.63;;;27.85;28.22
11830;BME280;5972;42.134;24.718;2023-03-25T10:23:13;99035.38;;;28.37;28.11
11830;BME280;5972;42.134;24.718;2023-03-25T10:25:44;99025.19;;;28.58;27.13
11830;BME280;5972;42.134;24.718;2023-03-25T10:28:15;99029.81;;;28.76;26.62
11830;BME280;5972;42.134;24.718;2023-03-25T10:30:45;99019.00;;;28.39;27.58
11830;BME280;5972;42.134;24.718;2023-03-25T10:33:17;99019.31;;;28.56;27.31
11830;BME280;5972;42.134;24.718;2023-03-25T10:35:48;98993.63;;;28.90;26.91
11830;BME280;5972;42.134;24.718;2023-03-25T10:38:18;98997.44;;;28.64;27.02
11830;BME280;5972;42.134;24.718;2023-03-25T10:40:46;98999.47;;;29.07;26.76
11830;BME280;5972;42.134;24.718;2023-03-25T10:43:19;98997.00;;;28.80;26.74
11830;BME280;5972;42.134;24.718;2023-03-25T10:45:48;98959.22;;;27.73;27.87
11830;BME280;5972;42.134;24.718;2023-03-25T10:48:20;98978.06;;;28.99;27.08
11830;BME280;5972;42.134;24.718;2023-03-25T10:50:52;98981.69;;;29.19;27.11
11830;BME280;5972;42.134;24.718;2023-03-25T10:53:23;98978.09;;;30.03;25.93
11830;BME280;5972;42.134;24.718;2023-03-25T10:55:57;98978.75;;;29.08;26.26
11830;BME280;5972;42.134;24.718;2023-03-25T10:58:25;98973.25;;;28.99;26.80
11830;BME280;5972;42.134;24.718;2023-03-25T11:00:52;98977.97;;;28.78;27.12
11830;BME280;5972;42.134;24.718;2023-03-25T11:03:21;98966.53;;;28.62;27.38
11830;BME280;5972;42.134;24.718;2023-03-25T11:05:51;98964.78;;;28.11;27.84
11830;BME280;5972;42.134;24.718;2023-03-25T11:08:19;98955.84;;;27.68;27.81
11830;BME280;5972;42.134;24.718;2023-03-25T11:10:48;98950.19;;;27.30;28.69
11830;BME280;5972;42.134;24.718;2023-03-25T11:13:23;98947.97;;;26.41;29.61
11830;BME280;5972;42.134;24.718;2023-03-25T11:15:51;98945.84;;;25.41;30.87
11830;BME280;5972;42.134;24.718;2023-03-25T11:18:21;98939.69;;;24.97;31.35
11830;BME280;5972;42.134;24.718;2023-03-25T11:20:49;98938.84;;;24.88;31.63
11830;BME280;5972;42.134;24.718;2023-03-25T11:23:23;98929.78;;;25.18;31.52
11830;BME280;5972;42.134;24.718;2023-03-25T11:25:53;98920.78;;;25.45;31.08
11830;BME280;5972;42.134;24.718;2023-03-25T11:28:24;98907.78;;;26.27;29.93
11830;BME280;5972;42.134;24.718;2023-03-25T11:31:12;98911.84;;;26.68;29.68
11830;BME280;5972;42.134;24.718;2023-03-25T11:33:41;98901.94;;;26.76;29.49
11830;BME280;5972;42.134;24.718;2023-03-25T11:36:24;98902.94;;;27.06;29.58
11830;BME280;5972;42.134;24.718;2023-03-25T11:38:58;98892.38;;;27.43;28.65
11830;BME280;5972;42.134;24.718;2023-03-25T11:41:30;98895.75;;;27.47;29.05
11830;BME280;5972;42.134;24.718;2023-03-25T11:43:57;98886.56;;;27.08;29.30
11830;BME280;5972;42.134;24.718;2023-03-25T11:46:25;98870.91;;;26.45;29.87
11830;BME280;5972;42.134;24.718;2023-03-25T11:48:52;98862.47;;;26.12;30.84
11830;BME280;5972;42.134;24.718;2023-03-25T11:51:22;98877.88;;;25.86;30.75
11830;BME280;5972;42.134;24.718;2023-03-25T11:53:56;98854.88;;;25.21;31.30
11830;BME280;5972;42.134;24.718;2023-03-25T11:56:28;98855.16;;;24.96;32.17
11830;BME280;5972;42.134;24.718;2023-03-25T11:58:59;98853.19;;;25.15;31.75
11830;BME280;5972;42.134;24.718;2023-03-25T12:01:44;98850.69;;;25.08;31.67
11830;BME280;5972;42.134;24.718;2023-03-25T12:04:14;98841.81;;;25.13;31.52
11830;BME280;5972;42.134;24.718;2023-03-25T12:06:56;98843.66;;;25.16;31.60
11830;BME280;5972;42.134;24.718;2023-03-25T12:09:25;98830.41;;;25.11;31.92
11830;BME280;5972;42.134;24.718;2023-03-25T12:12:03;98800.41;;;25.09;31.60
11830;BME280;5972;42.134;24.718;2023-03-25T12:14:39;98825.06;;;25.53;31.42
11830;BME280;5972;42.134;24.718;2023-03-25T12:17:18;98820.47;;;24.82;32.14
11830;BME280;5972;42.134;24.718;2023-03-25T12:19:53;98815.19;;;25.06;32.05
11830;BME280;5972;42.134;24.718;2023-03-25T12:22:34;98819.50;;;25.16;31.70
11830;BME280;5972;42.134;24.718;2023-03-25T12:25:21;98808.09;;;25.14;32.00
11830;BME280;5972;42.134;24.718;2023-03-25T12:28:04;98801.47;;;24.94;31.65
11830;BME280;5972;42.134;24.718;2023-03-25T12:30:47;98805.81;;;25.31;31.68
11830;BME280;5972;42.134;24.718;2023-03-25T12:33:30;98808.28;;;25.47;31.62
11830;BME280;5972;42.134;24.718;2023-03-25T12:36:17;98803.19;;;25.00;32.02
11830;BME280;5972;42.134;24.718;2023-03-25T12:38:57;98801.97;;;24.70;32.42
11830;BME280;5972;42.134;24.718;2023-03-25T12:41:36;98793.41;;;24.77;32.48
11830;BME280;5972;42.134;24.718;2023-03-25T12:44:09;98785.97;;;24.56;32.82
11830;BME280;5972;42.134;24.718;2023-03-25T12:46:57;98776.91;;;24.65;32.88
11830;BME280;5972;42.134;24.718;2023-03-25T12:49:39;98770.81;;;24.79;33.08
11830;BME280;5972;42.134;24.718;2023-03-25T12:52:15;98762.66;;;24.75;32.86
11830;BME280;5972;42.134;24.718;2023-03-25T12:54:55;98756.56;;;24.90;33.31
11830;BME280;5972;42.134;24.718;2023-03-25T12:57:43;98753.81;;;24.99;33.57
11830;BME280;5972;42.134;24.718;2023-03-25T13:03:20;98729.94;;;24.74;33.70
11830;BME280;5972;42.134;24.718;2023-03-25T13:05:54;98754.06;;;24.73;34.21
11830;BME280;5972;42.134;24.718;2023-03-25T13:08:30;98748.63;;;24.61;34.46
11830;BME280;5972;42.134;24.718;2023-03-25T13:11:04;98740.50;;;24.57;34.19
11830;BME280;5972;42.134;24.718;2023-03-25T13:13:37;98746.81;;;24.67;34.21
11830;BME280;5972;42.134;24.718;2023-03-25T13:16:09;98746.53;;;24.83;33.90
11830;BME280;5972;42.134;24.718;2023-03-25T13:18:43;98735.28;;;24.68;33.64
11830;BME280;5972;42.134;24.718;2023-03-25T13:21:17;98719.91;;;24.67;33.48
11830;BME280;5972;42.134;24.718;2023-03-25T13:23:53;98726.59;;;24.88;34.07
11830;BME280;5972;42.134;24.718;2023-03-25T13:26:25;98723.19;;;24.93;33.84